Schellsburg, Pennsylvania
Current Conditions -  °F | °C
As of 7:54 PM on Monday 20 Oct 2014 (Local Time) from KJST Reporting Station
Broken Clouds Broken Clouds  
Wind Chill: 51°   Ceiling: 8500
Heat Index: 51°   Visibility: 10mi
Dew Point: 34°   Wind: 8mph
Humidity: 52%   Direction: 210°SSW
Pressure: 29.91"   Gusts: NA
Location:  40.05°N, 78.64°W
Report Text: KJST 202354Z AUTO 21007KT 10SM FEW050 BKN085 BKN110 11/01 A2991 RMK AO2 SLP135 60000 T01060011 10111 20100 56002
Loading
Personal Weather Stations






























Interactive Weather Map
Tropical Storm Tracking
New forecast layout! Learn more

10-Day Weather Forecast

Advertisements
Track Severe Weather on mobile